Elkader, Iowa
Current Conditions -  °F | °C
As of 9:55 PM on Wednesday 22 Oct 2014 (Local Time) from KPDC Reporting Station
Clear Clear  
Wind Chill: 46°   Ceiling: Unl
Heat Index: 49°   Visibility: 10mi
Dew Point: 36°   Wind: 7mph
Humidity: 60%   Direction: 90°E
Pressure: 30.18"   Gusts: NA
Location:  42.85°N, 91.41°W
Report Text: KPDC 230255Z AUTO 09006KT 10SM CLR 10/02 A3018 RMK AO2 T00960022
Loading
Personal Weather Stations






























Interactive Weather Map
Tropical Storm Tracking
New forecast layout! Learn more

10-Day Weather Forecast

Advertisements
Track Severe Weather on mobile